METAR Data
IDs: Format: Raw Decoded Include TAF

Data at: 1615 UTC 18 Feb 2019

METAR for:KEOK (Keokuk Muni, IA, US)
Text:KEOK 181615Z AUTO 36011KT 10SM SCT015 M05/M08 A3038 RMK AO2
Temperature: -5.0°C ( 23°F)
Dewpoint: -8.0°C ( 18°F) [RH = 79%]
Pressure (altimeter):30.38 inches Hg (1028.9 mb)
Winds:from the N (360 degrees) at 13 MPH (11 knots; 5.7 m/s)
Visibility:10 or more sm (16+ km)
Ceiling:at least 12,000 feet AGL
Clouds: scattered clouds at 1500 feet AGL
QC Flag:automated observation with no human augmentation